sensor_id;sensor_type;location;lat;lon;timestamp;P1;durP1;ratioP1;P2;durP2;ratioP2
15952;SDS011;8075;47.766;8.846;2023-05-29T00:00:16;5.70;;;4.80;;
15952;SDS011;8075;47.766;8.846;2023-05-29T00:02:43;5.82;;;4.82;;
15952;SDS011;8075;47.766;8.846;2023-05-29T00:05:10;4.97;;;4.47;;
15952;SDS011;8075;47.766;8.846;2023-05-29T00:07:37;6.30;;;4.88;;
15952;SDS011;8075;47.766;8.846;2023-05-29T00:10:04;5.35;;;4.85;;
15952;SDS011;8075;47.766;8.846;2023-05-29T00:12:30;5.20;;;4.72;;
15952;SDS011;8075;47.766;8.846;2023-05-29T00:14:56;5.83;;;4.77;;
15952;SDS011;8075;47.766;8.846;2023-05-29T00:17:23;5.50;;;4.93;;
15952;SDS011;8075;47.766;8.846;2023-05-29T00:19:49;5.72;;;4.78;;
15952;SDS011;8075;47.766;8.846;2023-05-29T00:22:15;5.90;;;5.00;;
15952;SDS011;8075;47.766;8.846;2023-05-29T00:24:41;5.53;;;5.03;;
15952;SDS011;8075;47.766;8.846;2023-05-29T00:27:07;5.50;;;5.00;;
15952;SDS011;8075;47.766;8.846;2023-05-29T00:29:34;5.47;;;4.97;;
15952;SDS011;8075;47.766;8.846;2023-05-29T00:32:00;5.97;;;5.10;;
15952;SDS011;8075;47.766;8.846;2023-05-29T00:34:27;5.60;;;4.75;;
15952;SDS011;8075;47.766;8.846;2023-05-29T00:36:53;5.17;;;4.67;;
15952;SDS011;8075;47.766;8.846;2023-05-29T00:39:22;5.97;;;5.05;;
15952;SDS011;8075;47.766;8.846;2023-05-29T00:41:48;5.40;;;4.90;;
15952;SDS011;8075;47.766;8.846;2023-05-29T00:44:17;5.53;;;4.90;;
15952;SDS011;8075;47.766;8.846;2023-05-29T00:46:44;5.82;;;4.90;;
15952;SDS011;8075;47.766;8.846;2023-05-29T00:49:10;5.30;;;4.80;;
15952;SDS011;8075;47.766;8.846;2023-05-29T00:51:36;5.57;;;5.03;;
15952;SDS011;8075;47.766;8.846;2023-05-29T00:54:04;5.40;;;4.90;;
15952;SDS011;8075;47.766;8.846;2023-05-29T00:56:30;6.20;;;4.90;;
15952;SDS011;8075;47.766;8.846;2023-05-29T00:58:57;5.40;;;4.90;;
15952;SDS011;8075;47.766;8.846;2023-05-29T01:01:23;5.53;;;4.90;;
15952;SDS011;8075;47.766;8.846;2023-05-29T01:03:50;6.25;;;4.85;;
15952;SDS011;8075;47.766;8.846;2023-05-29T01:06:18;5.70;;;4.90;;
15952;SDS011;8075;47.766;8.846;2023-05-29T01:08:45;5.55;;;5.05;;
15952;SDS011;8075;47.766;8.846;2023-05-29T01:11:36;5.47;;;4.97;;
15952;SDS011;8075;47.766;8.846;2023-05-29T01:13:58;5.55;;;5.00;;
15952;SDS011;8075;47.766;8.846;2023-05-29T01:16:31;5.45;;;4.88;;
15952;SDS011;8075;47.766;8.846;2023-05-29T01:21:38;5.67;;;5.10;;
15952;SDS011;8075;47.766;8.846;2023-05-29T01:24:45;5.07;;;4.65;;
15952;SDS011;8075;47.766;8.846;2023-05-29T01:29:29;5.60;;;5.07;;
15952;SDS011;8075;47.766;8.846;2023-05-29T01:31:56;5.75;;;5.15;;
15952;SDS011;8075;47.766;8.846;2023-05-29T01:34:23;5.85;;;5.18;;
15952;SDS011;8075;47.766;8.846;2023-05-29T01:36:49;7.50;;;5.20;;
15952;SDS011;8075;47.766;8.846;2023-05-29T01:39:15;6.00;;;5.40;;
15952;SDS011;8075;47.766;8.846;2023-05-29T01:41:43;5.80;;;5.20;;
15952;SDS011;8075;47.766;8.846;2023-05-29T01:44:09;6.72;;;5.22;;
15952;SDS011;8075;47.766;8.846;2023-05-29T01:46:39;5.50;;;5.00;;
15952;SDS011;8075;47.766;8.846;2023-05-29T01:49:06;6.20;;;5.20;;
15952;SDS011;8075;47.766;8.846;2023-05-29T01:51:32;5.82;;;5.22;;
15952;SDS011;8075;47.766;8.846;2023-05-29T01:53:58;5.90;;;5.30;;
15952;SDS011;8075;47.766;8.846;2023-05-29T01:56:26;5.63;;;5.10;;
15952;SDS011;8075;47.766;8.846;2023-05-29T01:58:52;5.45;;;4.95;;
15952;SDS011;8075;47.766;8.846;2023-05-29T02:01:19;6.50;;;5.57;;
15952;SDS011;8075;47.766;8.846;2023-05-29T02:03:45;5.53;;;5.03;;
15952;SDS011;8075;47.766;8.846;2023-05-29T02:06:11;6.35;;;5.18;;
15952;SDS011;8075;47.766;8.846;2023-05-29T02:08:37;5.97;;;5.38;;
15952;SDS011;8075;47.766;8.846;2023-05-29T02:11:03;5.80;;;4.90;;
15952;SDS011;8075;47.766;8.846;2023-05-29T02:13:30;5.82;;;5.22;;
15952;SDS011;8075;47.766;8.846;2023-05-29T02:15:56;5.53;;;5.03;;
15952;SDS011;8075;47.766;8.846;2023-05-29T02:18:22;6.13;;;5.28;;
15952;SDS011;8075;47.766;8.846;2023-05-29T02:20:48;5.77;;;5.17;;
15952;SDS011;8075;47.766;8.846;2023-05-29T02:23:14;5.70;;;5.15;;
15952;SDS011;8075;47.766;8.846;2023-05-29T02:25:40;6.20;;;5.60;;
15952;SDS011;8075;47.766;8.846;2023-05-29T02:28:06;5.50;;;5.00;;
15952;SDS011;8075;47.766;8.846;2023-05-29T02:30:32;7.45;;;5.30;;
15952;SDS011;8075;47.766;8.846;2023-05-29T02:32:58;5.78;;;5.28;;
15952;SDS011;8075;47.766;8.846;2023-05-29T02:35:25;5.38;;;4.72;;
15952;SDS011;8075;47.766;8.846;2023-05-29T02:37:51;7.03;;;5.47;;
15952;SDS011;8075;47.766;8.846;2023-05-29T02:40:17;5.60;;;5.10;;
15952;SDS011;8075;47.766;8.846;2023-05-29T02:42:43;6.60;;;5.90;;
15952;SDS011;8075;47.766;8.846;2023-05-29T02:45:10;6.77;;;6.07;;
15952;SDS011;8075;47.766;8.846;2023-05-29T02:47:36;7.97;;;6.60;;
15952;SDS011;8075;47.766;8.846;2023-05-29T02:50:02;6.60;;;5.70;;
15952;SDS011;8075;47.766;8.846;2023-05-29T02:52:29;6.77;;;5.93;;
15952;SDS011;8075;47.766;8.846;2023-05-29T02:54:55;7.20;;;5.95;;
15952;SDS011;8075;47.766;8.846;2023-05-29T02:57:21;6.50;;;5.97;;
15952;SDS011;8075;47.766;8.846;2023-05-29T02:59:48;6.70;;;6.10;;
15952;SDS011;8075;47.766;8.846;2023-05-29T03:02:14;6.97;;;6.30;;
15952;SDS011;8075;47.766;8.846;2023-05-29T03:04:40;6.95;;;6.20;;
15952;SDS011;8075;47.766;8.846;2023-05-29T03:07:06;6.32;;;5.72;;
15952;SDS011;8075;47.766;8.846;2023-05-29T03:09:34;6.22;;;5.63;;
15952;SDS011;8075;47.766;8.846;2023-05-29T03:12:00;6.13;;;5.60;;
15952;SDS011;8075;47.766;8.846;2023-05-29T03:14:26;6.10;;;5.50;;
15952;SDS011;8075;47.766;8.846;2023-05-29T03:16:52;6.63;;;5.93;;
15952;SDS011;8075;47.766;8.846;2023-05-29T03:19:19;8.63;;;5.80;;
15952;SDS011;8075;47.766;8.846;2023-05-29T03:21:45;6.50;;;5.90;;
15952;SDS011;8075;47.766;8.846;2023-05-29T03:24:11;7.75;;;5.82;;
15952;SDS011;8075;47.766;8.846;2023-05-29T03:26:38;7.05;;;5.70;;
15952;SDS011;8075;47.766;8.846;2023-05-29T03:29:04;6.53;;;5.82;;
15952;SDS011;8075;47.766;8.846;2023-05-29T03:31:30;6.28;;;5.68;;
15952;SDS011;8075;47.766;8.846;2023-05-29T03:33:57;6.30;;;5.63;;
15952;SDS011;8075;47.766;8.846;2023-05-29T03:36:23;6.97;;;6.32;;
15952;SDS011;8075;47.766;8.846;2023-05-29T03:38:49;6.22;;;5.63;;
15952;SDS011;8075;47.766;8.846;2023-05-29T03:41:15;6.45;;;5.75;;
15952;SDS011;8075;47.766;8.846;2023-05-29T03:43:41;6.30;;;5.70;;
15952;SDS011;8075;47.766;8.846;2023-05-29T03:46:08;6.47;;;5.77;;
15952;SDS011;8075;47.766;8.846;2023-05-29T03:48:34;6.23;;;5.63;;
15952;SDS011;8075;47.766;8.846;2023-05-29T03:51:00;6.32;;;5.65;;
15952;SDS011;8075;47.766;8.846;2023-05-29T03:53:26;6.90;;;6.20;;
15952;SDS011;8075;47.766;8.846;2023-05-29T03:55:52;6.35;;;5.75;;
15952;SDS011;8075;47.766;8.846;2023-05-29T03:58:18;6.47;;;5.90;;
15952;SDS011;8075;47.766;8.846;2023-05-29T04:00:44;7.05;;;5.93;;
15952;SDS011;8075;47.766;8.846;2023-05-29T04:03:10;6.88;;;6.03;;
15952;SDS011;8075;47.766;8.846;2023-05-29T04:05:36;6.90;;;6.30;;
15952;SDS011;8075;47.766;8.846;2023-05-29T04:08:02;6.90;;;6.20;;
15952;SDS011;8075;47.766;8.846;2023-05-29T04:10:29;6.22;;;5.63;;
15952;SDS011;8075;47.766;8.846;2023-05-29T04:12:58;6.93;;;6.10;;
15952;SDS011;8075;47.766;8.846;2023-05-29T04:15:24;7.47;;;5.97;;
15952;SDS011;8075;47.766;8.846;2023-05-29T04:17:50;7.03;;;6.10;;
15952;SDS011;8075;47.766;8.846;2023-05-29T04:20:16;7.05;;;5.95;;
15952;SDS011;8075;47.766;8.846;2023-05-29T04:22:42;6.93;;;5.93;;
15952;SDS011;8075;47.766;8.846;2023-05-29T04:25:08;7.68;;;5.75;;
15952;SDS011;8075;47.766;8.846;2023-05-29T04:27:34;8.40;;;6.17;;
15952;SDS011;8075;47.766;8.846;2023-05-29T04:30:03;7.35;;;6.30;;
15952;SDS011;8075;47.766;8.846;2023-05-29T04:32:29;8.15;;;6.00;;
15952;SDS011;8075;47.766;8.846;2023-05-29T04:34:56;7.43;;;6.05;;
15952;SDS011;8075;47.766;8.846;2023-05-29T04:37:22;6.40;;;5.60;;
15952;SDS011;8075;47.766;8.846;2023-05-29T04:39:54;6.57;;;5.88;;
15952;SDS011;8075;47.766;8.846;2023-05-29T04:42:20;6.15;;;5.55;;
15952;SDS011;8075;47.766;8.846;2023-05-29T04:44:47;7.00;;;5.50;;
15952;SDS011;8075;47.766;8.846;2023-05-29T04:47:14;7.75;;;5.90;;
15952;SDS011;8075;47.766;8.846;2023-05-29T04:49:40;6.10;;;5.18;;
15952;SDS011;8075;47.766;8.846;2023-05-29T04:52:07;5.80;;;5.23;;
15952;SDS011;8075;47.766;8.846;2023-05-29T04:54:34;6.72;;;5.13;;
15952;SDS011;8075;47.766;8.846;2023-05-29T04:57:00;6.03;;;5.43;;
15952;SDS011;8075;47.766;8.846;2023-05-29T04:59:26;5.60;;;5.03;;
15952;SDS011;8075;47.766;8.846;2023-05-29T05:01:52;9.05;;;6.90;;
15952;SDS011;8075;47.766;8.846;2023-05-29T05:04:18;5.85;;;5.32;;
15952;SDS011;8075;47.766;8.846;2023-05-29T05:06:44;5.72;;;5.13;;
15952;SDS011;8075;47.766;8.846;2023-05-29T05:09:10;5.70;;;5.10;;
15952;SDS011;8075;47.766;8.846;2023-05-29T05:11:37;6.40;;;5.80;;
15952;SDS011;8075;47.766;8.846;2023-05-29T05:14:03;7.03;;;6.28;;
15952;SDS011;8075;47.766;8.846;2023-05-29T05:16:29;7.10;;;5.88;;
15952;SDS011;8075;47.766;8.846;2023-05-29T05:18:55;6.30;;;5.40;;
15952;SDS011;8075;47.766;8.846;2023-05-29T05:21:21;7.82;;;5.47;;
15952;SDS011;8075;47.766;8.846;2023-05-29T05:23:47;6.55;;;5.03;;
15952;SDS011;8075;47.766;8.846;2023-05-29T05:26:13;6.53;;;5.20;;
15952;SDS011;8075;47.766;8.846;2023-05-29T05:28:39;7.13;;;5.07;;
15952;SDS011;8075;47.766;8.846;2023-05-29T05:31:05;4.88;;;4.38;;
15952;SDS011;8075;47.766;8.846;2023-05-29T05:33:31;5.97;;;4.60;;
15952;SDS011;8075;47.766;8.846;2023-05-29T05:35:57;5.25;;;4.75;;
15952;SDS011;8075;47.766;8.846;2023-05-29T05:38:23;5.20;;;4.70;;
15952;SDS011;8075;47.766;8.846;2023-05-29T05:40:49;5.40;;;4.90;;
15952;SDS011;8075;47.766;8.846;2023-05-29T05:43:15;5.82;;;5.10;;
15952;SDS011;8075;47.766;8.846;2023-05-29T05:45:41;4.93;;;4.35;;
15952;SDS011;8075;47.766;8.846;2023-05-29T05:48:07;5.45;;;4.80;;
15952;SDS011;8075;47.766;8.846;2023-05-29T05:50:34;6.22;;;4.90;;
15952;SDS011;8075;47.766;8.846;2023-05-29T05:53:00;5.38;;;4.30;;
15952;SDS011;8075;47.766;8.846;2023-05-29T05:55:26;5.65;;;4.63;;
15952;SDS011;8075;47.766;8.846;2023-05-29T05:57:53;6.47;;;4.65;;
15952;SDS011;8075;47.766;8.846;2023-05-29T06:00:20;5.18;;;4.68;;
15952;SDS011;8075;47.766;8.846;2023-05-29T06:02:47;5.10;;;4.45;;
15952;SDS011;8075;47.766;8.846;2023-05-29T06:05:13;5.33;;;4.83;;
15952;SDS011;8075;47.766;8.846;2023-05-29T06:07:39;5.18;;;4.68;;
15952;SDS011;8075;47.766;8.846;2023-05-29T06:10:05;6.05;;;4.03;;
15952;SDS011;8075;47.766;8.846;2023-05-29T06:12:31;4.90;;;4.40;;
15952;SDS011;8075;47.766;8.846;2023-05-29T06:14:57;5.68;;;4.85;;
15952;SDS011;8075;47.766;8.846;2023-05-29T06:17:23;6.63;;;4.25;;
15952;SDS011;8075;47.766;8.846;2023-05-29T06:19:49;5.30;;;4.30;;
15952;SDS011;8075;47.766;8.846;2023-05-29T06:22:15;4.90;;;4.40;;
15952;SDS011;8075;47.766;8.846;2023-05-29T06:24:41;4.40;;;4.00;;
15952;SDS011;8075;47.766;8.846;2023-05-29T06:27:07;4.93;;;4.22;;
15952;SDS011;8075;47.766;8.846;2023-05-29T06:29:33;4.75;;;4.25;;
15952;SDS011;8075;47.766;8.846;2023-05-29T06:31:59;5.63;;;4.30;;
15952;SDS011;8075;47.766;8.846;2023-05-29T06:34:25;5.65;;;4.45;;
15952;SDS011;8075;47.766;8.846;2023-05-29T06:36:51;4.93;;;4.43;;
15952;SDS011;8075;47.766;8.846;2023-05-29T06:39:17;6.38;;;4.28;;
15952;SDS011;8075;47.766;8.846;2023-05-29T06:41:45;5.82;;;4.57;;
15952;SDS011;8075;47.766;8.846;2023-05-29T06:44:11;7.75;;;4.70;;
15952;SDS011;8075;47.766;8.846;2023-05-29T06:46:37;6.10;;;4.35;;
15952;SDS011;8075;47.766;8.846;2023-05-29T06:49:03;5.45;;;4.57;;
15952;SDS011;8075;47.766;8.846;2023-05-29T06:51:29;5.82;;;4.70;;
15952;SDS011;8075;47.766;8.846;2023-05-29T06:53:55;6.20;;;4.85;;
15952;SDS011;8075;47.766;8.846;2023-05-29T06:56:21;6.18;;;4.70;;
15952;SDS011;8075;47.766;8.846;2023-05-29T06:58:47;5.72;;;4.70;;
15952;SDS011;8075;47.766;8.846;2023-05-29T07:01:13;6.25;;;4.50;;
15952;SDS011;8075;47.766;8.846;2023-05-29T07:03:41;6.93;;;5.07;;
15952;SDS011;8075;47.766;8.846;2023-05-29T07:06:07;6.50;;;4.57;;
15952;SDS011;8075;47.766;8.846;2023-05-29T07:08:33;5.68;;;4.43;;
15952;SDS011;8075;47.766;8.846;2023-05-29T07:11:00;5.03;;;4.50;;
15952;SDS011;8075;47.766;8.846;2023-05-29T07:13:26;5.27;;;4.40;;
15952;SDS011;8075;47.766;8.846;2023-05-29T07:15:52;6.47;;;4.20;;
15952;SDS011;8075;47.766;8.846;2023-05-29T07:18:18;5.18;;;4.60;;
15952;SDS011;8075;47.766;8.846;2023-05-29T07:20:44;5.68;;;4.57;;
15952;SDS011;8075;47.766;8.846;2023-05-29T07:23:10;4.65;;;4.20;;
15952;SDS011;8075;47.766;8.846;2023-05-29T07:25:36;5.75;;;4.45;;
15952;SDS011;8075;47.766;8.846;2023-05-29T07:28:02;6.07;;;4.83;;
15952;SDS011;8075;47.766;8.846;2023-05-29T07:30:28;4.90;;;4.40;;
15952;SDS011;8075;47.766;8.846;2023-05-29T07:32:54;5.15;;;4.32;;
15952;SDS011;8075;47.766;8.846;2023-05-29T07:35:20;6.28;;;4.40;;
15952;SDS011;8075;47.766;8.846;2023-05-29T07:37:46;4.72;;;4.20;;
15952;SDS011;8075;47.766;8.846;2023-05-29T07:40:14;6.05;;;4.30;;
15952;SDS011;8075;47.766;8.846;2023-05-29T07:42:40;5.47;;;4.50;;
15952;SDS011;8075;47.766;8.846;2023-05-29T07:45:06;4.70;;;4.30;;
15952;SDS011;8075;47.766;8.846;2023-05-29T07:47:32;5.00;;;4.50;;
15952;SDS011;8075;47.766;8.846;2023-05-29T07:49:58;4.95;;;4.45;;
15952;SDS011;8075;47.766;8.846;2023-05-29T07:52:24;4.47;;;4.07;;
15952;SDS011;8075;47.766;8.846;2023-05-29T07:54:50;7.53;;;4.47;;
15952;SDS011;8075;47.766;8.846;2023-05-29T07:57:16;6.30;;;4.30;;
15952;SDS011;8075;47.766;8.846;2023-05-29T07:59:42;6.22;;;4.80;;
15952;SDS011;8075;47.766;8.846;2023-05-29T08:02:09;4.90;;;4.25;;
15952;SDS011;8075;47.766;8.846;2023-05-29T08:04:35;6.28;;;4.20;;
15952;SDS011;8075;47.766;8.846;2023-05-29T08:07:02;4.88;;;4.47;;
15952;SDS011;8075;47.766;8.846;2023-05-29T08:09:31;5.40;;;4.15;;
15952;SDS011;8075;47.766;8.846;2023-05-29T08:11:57;5.57;;;4.50;;
15952;SDS011;8075;47.766;8.846;2023-05-29T08:14:25;5.80;;;4.63;;
15952;SDS011;8075;47.766;8.846;2023-05-29T08:16:51;4.55;;;4.15;;
15952;SDS011;8075;47.766;8.846;2023-05-29T08:19:17;5.25;;;4.43;;
15952;SDS011;8075;47.766;8.846;2023-05-29T08:21:43;5.65;;;4.35;;
15952;SDS011;8075;47.766;8.846;2023-05-29T08:24:09;5.30;;;4.65;;
15952;SDS011;8075;47.766;8.846;2023-05-29T08:26:35;4.80;;;4.30;;
15952;SDS011;8075;47.766;8.846;2023-05-29T08:29:01;4.83;;;4.33;;
15952;SDS011;8075;47.766;8.846;2023-05-29T08:31:29;6.13;;;4.68;;
15952;SDS011;8075;47.766;8.846;2023-05-29T08:33:55;5.20;;;4.55;;
15952;SDS011;8075;47.766;8.846;2023-05-29T08:36:21;6.15;;;4.32;;
15952;SDS011;8075;47.766;8.846;2023-05-29T08:38:50;5.60;;;4.17;;
15952;SDS011;8075;47.766;8.846;2023-05-29T08:41:28;4.70;;;4.20;;
15952;SDS011;8075;47.766;8.846;2023-05-29T08:43:57;5.87;;;4.07;;
15952;SDS011;8075;47.766;8.846;2023-05-29T08:46:25;4.97;;;4.07;;
15952;SDS011;8075;47.766;8.846;2023-05-29T08:48:52;4.93;;;4.00;;
15952;SDS011;8075;47.766;8.846;2023-05-29T08:51:20;5.57;;;4.38;;
15952;SDS011;8075;47.766;8.846;2023-05-29T08:53:47;6.60;;;4.33;;
15952;SDS011;8075;47.766;8.846;2023-05-29T08:56:13;5.70;;;4.07;;
15952;SDS011;8075;47.766;8.846;2023-05-29T08:58:39;4.82;;;4.30;;
15952;SDS011;8075;47.766;8.846;2023-05-29T09:01:05;5.10;;;4.20;;
15952;SDS011;8075;47.766;8.846;2023-05-29T09:03:31;4.75;;;4.15;;
15952;SDS011;8075;47.766;8.846;2023-05-29T09:05:58;5.10;;;4.05;;
15952;SDS011;8075;47.766;8.846;2023-05-29T09:08:25;4.43;;;4.00;;
15952;SDS011;8075;47.766;8.846;2023-05-29T09:10:52;5.28;;;4.20;;
15952;SDS011;8075;47.766;8.846;2023-05-29T09:13:18;4.53;;;4.13;;
15952;SDS011;8075;47.766;8.846;2023-05-29T09:15:44;4.95;;;4.30;;
15952;SDS011;8075;47.766;8.846;2023-05-29T09:18:10;5.07;;;3.80;;
15952;SDS011;8075;47.766;8.846;2023-05-29T09:20:36;5.07;;;4.13;;
15952;SDS011;8075;47.766;8.846;2023-05-29T09:23:03;4.55;;;4.10;;
15952;SDS011;8075;47.766;8.846;2023-05-29T09:25:30;7.07;;;4.43;;
15952;SDS011;8075;47.766;8.846;2023-05-29T09:27:58;4.30;;;3.90;;
15952;SDS011;8075;47.766;8.846;2023-05-29T09:30:38;5.70;;;4.40;;
15952;SDS011;8075;47.766;8.846;2023-05-29T09:33:05;4.40;;;4.00;;
15952;SDS011;8075;47.766;8.846;2023-05-29T09:35:35;5.28;;;4.07;;
15952;SDS011;8075;47.766;8.846;2023-05-29T09:38:02;5.55;;;4.20;;
15952;SDS011;8075;47.766;8.846;2023-05-29T09:40:31;5.10;;;4.40;;
15952;SDS011;8075;47.766;8.846;2023-05-29T09:45:39;4.47;;;4.10;;
15952;SDS011;8075;47.766;8.846;2023-05-29T09:48:06;5.50;;;4.47;;
15952;SDS011;8075;47.766;8.846;2023-05-29T09:50:32;4.80;;;4.40;;
15952;SDS011;8075;47.766;8.846;2023-05-29T09:52:59;6.40;;;4.50;;
15952;SDS011;8075;47.766;8.846;2023-05-29T09:55:26;7.07;;;4.07;;
15952;SDS011;8075;47.766;8.846;2023-05-29T09:57:53;5.10;;;4.60;;
15952;SDS011;8075;47.766;8.846;2023-05-29T10:00:21;5.47;;;4.40;;
15952;SDS011;8075;47.766;8.846;2023-05-29T10:02:48;4.78;;;4.38;;
15952;SDS011;8075;47.766;8.846;2023-05-29T10:05:14;4.70;;;4.30;;
15952;SDS011;8075;47.766;8.846;2023-05-29T10:07:43;4.95;;;4.47;;
15952;SDS011;8075;47.766;8.846;2023-05-29T10:10:12;4.82;;;4.30;;
15952;SDS011;8075;47.766;8.846;2023-05-29T10:12:39;5.10;;;4.43;;
15952;SDS011;8075;47.766;8.846;2023-05-29T10:15:12;5.05;;;4.53;;
15952;SDS011;8075;47.766;8.846;2023-05-29T10:17:51;4.80;;;4.40;;
15952;SDS011;8075;47.766;8.846;2023-05-29T10:20:20;5.32;;;4.43;;
15952;SDS011;8075;47.766;8.846;2023-05-29T10:22:48;5.10;;;4.60;;
15952;SDS011;8075;47.766;8.846;2023-05-29T10:25:14;4.60;;;4.20;;
15952;SDS011;8075;47.766;8.846;2023-05-29T10:27:43;4.60;;;4.20;;
15952;SDS011;8075;47.766;8.846;2023-05-29T10:30:11;4.68;;;4.28;;
15952;SDS011;8075;47.766;8.846;2023-05-29T10:33:22;4.82;;;4.40;;
15952;SDS011;8075;47.766;8.846;2023-05-29T10:38:14;4.80;;;4.38;;
15952;SDS011;8075;47.766;8.846;2023-05-29T10:40:42;4.95;;;4.45;;
15952;SDS011;8075;47.766;8.846;2023-05-29T10:43:08;4.88;;;4.47;;
15952;SDS011;8075;47.766;8.846;2023-05-29T10:50:40;4.50;;;4.10;;
15952;SDS011;8075;47.766;8.846;2023-05-29T10:53:10;5.38;;;4.65;;
15952;SDS011;8075;47.766;8.846;2023-05-29T10:55:36;5.05;;;4.55;;
15952;SDS011;8075;47.766;8.846;2023-05-29T11:00:32;4.80;;;4.40;;
15952;SDS011;8075;47.766;8.846;2023-05-29T11:03:02;5.80;;;4.50;;
15952;SDS011;8075;47.766;8.846;2023-05-29T11:05:28;4.70;;;4.30;;
15952;SDS011;8075;47.766;8.846;2023-05-29T11:07:58;5.07;;;4.57;;
15952;SDS011;8075;47.766;8.846;2023-05-29T11:10:41;4.85;;;4.40;;
15952;SDS011;8075;47.766;8.846;2023-05-29T11:13:10;5.60;;;4.65;;
15952;SDS011;8075;47.766;8.846;2023-05-29T11:15:37;5.10;;;4.43;;
15952;SDS011;8075;47.766;8.846;2023-05-29T11:18:06;6.05;;;4.70;;
15952;SDS011;8075;47.766;8.846;2023-05-29T11:25:25;6.30;;;4.80;;
15952;SDS011;8075;47.766;8.846;2023-05-29T11:27:51;5.18;;;4.50;;
15952;SDS011;8075;47.766;8.846;2023-05-29T11:30:18;4.95;;;4.53;;
15952;SDS011;8075;47.766;8.846;2023-05-29T11:32:45;5.50;;;4.22;;
15952;SDS011;8075;47.766;8.846;2023-05-29T11:35:15;4.70;;;4.18;;
15952;SDS011;8075;47.766;8.846;2023-05-29T11:37:42;4.87;;;4.37;;
15952;SDS011;8075;47.766;8.846;2023-05-29T11:40:10;6.10;;;4.20;;
15952;SDS011;8075;47.766;8.846;2023-05-29T11:42:40;4.80;;;4.30;;
15952;SDS011;8075;47.766;8.846;2023-05-29T11:45:11;5.07;;;4.35;;
15952;SDS011;8075;47.766;8.846;2023-05-29T11:47:57;5.00;;;4.50;;
15952;SDS011;8075;47.766;8.846;2023-05-29T11:50:26;4.75;;;4.35;;
15952;SDS011;8075;47.766;8.846;2023-05-29T11:52:53;4.70;;;4.30;;
15952;SDS011;8075;47.766;8.846;2023-05-29T11:55:19;4.47;;;4.07;;
15952;SDS011;8075;47.766;8.846;2023-05-29T11:57:46;5.82;;;4.50;;
15952;SDS011;8075;47.766;8.846;2023-05-29T12:00:14;4.77;;;4.33;;
15952;SDS011;8075;47.766;8.846;2023-05-29T12:02:40;5.40;;;4.20;;
15952;SDS011;8075;47.766;8.846;2023-05-29T12:05:12;8.23;;;4.43;;
15952;SDS011;8075;47.766;8.846;2023-05-29T12:07:46;4.50;;;3.95;;
15952;SDS011;8075;47.766;8.846;2023-05-29T12:10:13;4.60;;;4.10;;
15952;SDS011;8075;47.766;8.846;2023-05-29T12:12:39;4.35;;;3.95;;
15952;SDS011;8075;47.766;8.846;2023-05-29T12:15:06;4.68;;;4.25;;
15952;SDS011;8075;47.766;8.846;2023-05-29T12:17:33;4.10;;;3.70;;
15952;SDS011;8075;47.766;8.846;2023-05-29T12:19:59;3.90;;;3.50;;
15952;SDS011;8075;47.766;8.846;2023-05-29T12:22:34;5.50;;;4.03;;
15952;SDS011;8075;47.766;8.846;2023-05-29T12:25:10;4.55;;;3.97;;
15952;SDS011;8075;47.766;8.846;2023-05-29T12:27:39;4.47;;;3.90;;
15952;SDS011;8075;47.766;8.846;2023-05-29T12:30:12;5.22;;;3.58;;
15952;SDS011;8075;47.766;8.846;2023-05-29T12:32:42;4.03;;;3.65;;
15952;SDS011;8075;47.766;8.846;2023-05-29T12:35:18;4.38;;;3.60;;
15952;SDS011;8075;47.766;8.846;2023-05-29T12:37:48;5.00;;;3.90;;
15952;SDS011;8075;47.766;8.846;2023-05-29T12:42:41;4.28;;;3.60;;
15952;SDS011;8075;47.766;8.846;2023-05-29T12:45:07;3.70;;;3.30;;
15952;SDS011;8075;47.766;8.846;2023-05-29T12:47:34;4.30;;;3.20;;
15952;SDS011;8075;47.766;8.846;2023-05-29T12:50:04;3.45;;;3.15;;
15952;SDS011;8075;47.766;8.846;2023-05-29T12:52:30;3.92;;;3.42;;
15952;SDS011;8075;47.766;8.846;2023-05-29T12:54:56;3.70;;;3.17;;
15952;SDS011;8075;47.766;8.846;2023-05-29T12:57:22;3.53;;;3.10;;
15952;SDS011;8075;47.766;8.846;2023-05-29T12:59:48;3.92;;;3.30;;
15952;SDS011;8075;47.766;8.846;2023-05-29T13:02:14;3.63;;;3.00;;
15952;SDS011;8075;47.766;8.846;2023-05-29T13:04:41;3.42;;;3.13;;
15952;SDS011;8075;47.766;8.846;2023-05-29T13:07:06;4.00;;;3.08;;
15952;SDS011;8075;47.766;8.846;2023-05-29T13:09:32;4.60;;;3.10;;
15952;SDS011;8075;47.766;8.846;2023-05-29T13:11:58;3.72;;;2.95;;
15952;SDS011;8075;47.766;8.846;2023-05-29T13:14:26;3.93;;;3.00;;
15952;SDS011;8075;47.766;8.846;2023-05-29T13:16:52;4.43;;;2.97;;
15952;SDS011;8075;47.766;8.846;2023-05-29T13:19:18;3.40;;;3.10;;
15952;SDS011;8075;47.766;8.846;2023-05-29T13:21:44;3.20;;;2.90;;
15952;SDS011;8075;47.766;8.846;2023-05-29T13:24:13;6.40;;;3.30;;
15952;SDS011;8075;47.766;8.846;2023-05-29T13:26:39;3.30;;;3.00;;
15952;SDS011;8075;47.766;8.846;2023-05-29T13:29:05;3.30;;;2.80;;
15952;SDS011;8075;47.766;8.846;2023-05-29T13:31:31;3.35;;;3.05;;
15952;SDS011;8075;47.766;8.846;2023-05-29T13:33:57;3.42;;;2.92;;
15952;SDS011;8075;47.766;8.846;2023-05-29T13:36:23;3.55;;;2.72;;
15952;SDS011;8075;47.766;8.846;2023-05-29T13:38:49;3.85;;;2.90;;
15952;SDS011;8075;47.766;8.846;2023-05-29T13:41:15;3.33;;;2.80;;
15952;SDS011;8075;47.766;8.846;2023-05-29T13:43:41;3.17;;;2.60;;
15952;SDS011;8075;47.766;8.846;2023-05-29T13:46:07;4.35;;;2.80;;
15952;SDS011;8075;47.766;8.846;2023-05-29T13:48:33;4.70;;;2.80;;
15952;SDS011;8075;47.766;8.846;2023-05-29T13:50:59;3.15;;;2.78;;
15952;SDS011;8075;47.766;8.846;2023-05-29T13:53:25;3.80;;;2.88;;
15952;SDS011;8075;47.766;8.846;2023-05-29T13:55:51;2.97;;;2.65;;
15952;SDS011;8075;47.766;8.846;2023-05-29T13:58:17;3.10;;;2.78;;
15952;SDS011;8075;47.766;8.846;2023-05-29T14:00:43;3.30;;;2.63;;
15952;SDS011;8075;47.766;8.846;2023-05-29T14:03:09;3.10;;;2.70;;
15952;SDS011;8075;47.766;8.846;2023-05-29T14:05:35;4.15;;;2.92;;
15952;SDS011;8075;47.766;8.846;2023-05-29T14:08:01;4.18;;;2.60;;
15952;SDS011;8075;47.766;8.846;2023-05-29T14:10:27;3.55;;;2.75;;
15952;SDS011;8075;47.766;8.846;2023-05-29T14:12:53;3.78;;;2.60;;
15952;SDS011;8075;47.766;8.846;2023-05-29T14:15:23;3.00;;;2.70;;
15952;SDS011;8075;47.766;8.846;2023-05-29T14:17:49;2.58;;;2.38;;
15952;SDS011;8075;47.766;8.846;2023-05-29T14:20:15;2.80;;;2.60;;
15952;SDS011;8075;47.766;8.846;2023-05-29T14:22:41;3.22;;;2.60;;
15952;SDS011;8075;47.766;8.846;2023-05-29T14:25:07;3.70;;;2.60;;
15952;SDS011;8075;47.766;8.846;2023-05-29T14:27:33;2.80;;;2.45;;
15952;SDS011;8075;47.766;8.846;2023-05-29T14:29:59;3.38;;;2.60;;
15952;SDS011;8075;47.766;8.846;2023-05-29T14:32:25;2.55;;;2.35;;
15952;SDS011;8075;47.766;8.846;2023-05-29T14:34:51;2.72;;;2.53;;
15952;SDS011;8075;47.766;8.846;2023-05-29T14:37:17;2.88;;;2.25;;
15952;SDS011;8075;47.766;8.846;2023-05-29T14:39:43;3.45;;;2.40;;
15952;SDS011;8075;47.766;8.846;2023-05-29T14:42:09;3.35;;;2.50;;
15952;SDS011;8075;47.766;8.846;2023-05-29T14:44:35;3.45;;;2.78;;
15952;SDS011;8075;47.766;8.846;2023-05-29T14:47:01;3.20;;;2.60;;
15952;SDS011;8075;47.766;8.846;2023-05-29T14:49:27;2.88;;;2.58;;
15952;SDS011;8075;47.766;8.846;2023-05-29T14:51:56;2.97;;;2.47;;
15952;SDS011;8075;47.766;8.846;2023-05-29T14:54:22;2.90;;;2.60;;
15952;SDS011;8075;47.766;8.846;2023-05-29T14:56:49;3.75;;;2.90;;
15952;SDS011;8075;47.766;8.846;2023-05-29T14:59:15;4.20;;;2.70;;
15952;SDS011;8075;47.766;8.846;2023-05-29T15:01:41;2.83;;;2.63;;
15952;SDS011;8075;47.766;8.846;2023-05-29T15:04:07;4.85;;;3.20;;
15952;SDS011;8075;47.766;8.846;2023-05-29T15:06:33;3.55;;;2.95;;
15952;SDS011;8075;47.766;8.846;2023-05-29T15:08:59;2.92;;;2.70;;
15952;SDS011;8075;47.766;8.846;2023-05-29T15:11:26;2.90;;;2.60;;
15952;SDS011;8075;47.766;8.846;2023-05-29T15:13:52;4.15;;;2.78;;
15952;SDS011;8075;47.766;8.846;2023-05-29T15:16:18;3.45;;;3.15;;
15952;SDS011;8075;47.766;8.846;2023-05-29T15:18:44;3.43;;;2.90;;
15952;SDS011;8075;47.766;8.846;2023-05-29T15:21:10;4.87;;;3.10;;
15952;SDS011;8075;47.766;8.846;2023-05-29T15:23:36;3.10;;;2.80;;